Time;durP1;ratioP1;P1;durP2;ratioP2;P2;SDS_P1;SDS_P2;PMS_P1;PMS_P2;Temp;Humidity;BMP_temperature;BMP_pressure;BME280_temperature;BME280_humidity;BME280_pressure;Samples;Min_cycle;Max_cycle;Signal;HPM_P1;HPM_P2
2021/06/11 00:00:55;;;;;;;;;;;17.20;99.90;;;16.90;100.00;100739.38;5074818;28;19925;-63
2021/06/11 00:03:22;;;;;;;;;;;17.20;99.90;;;16.81;100.00;100741.38;5075221;28;19928;-63
2021/06/11 00:05:49;;;;;;;;;;;17.10;99.90;;;16.78;100.00;100739.28;5074606;28;19929;-64
2021/06/11 00:08:17;;;;;;;;;;;17.10;99.90;;;16.75;100.00;100737.22;5075067;28;19928;-63
2021/06/11 00:10:44;;;;;;;;;;;17.00;99.90;;;16.74;100.00;100738.38;5074853;28;20376;-63
2021/06/11 00:13:11;;;;;;;;;;;17.00;99.90;;;16.75;100.00;100740.75;5074587;28;19924;-63
2021/06/11 00:15:39;;;;;;;;;;;;;;;16.75;100.00;100748.16;5074545;28;20389;-64
2021/06/11 00:18:08;;;;;;;;;;;17.00;99.90;;;16.77;100.00;100751.38;5074819;28;19924;-64
2021/06/11 00:20:35;;;;;;;;;;;17.00;99.90;;;16.79;100.00;100752.63;5074336;28;19929;-64
2021/06/11 00:23:02;;;;;;;;;;;17.10;99.90;;;16.80;100.00;100750.69;5074601;28;19935;-64
2021/06/11 00:25:29;;;;;;;;;;;17.10;99.90;;;16.79;100.00;100749.09;5074492;28;20373;-64
2021/06/11 00:27:59;;;;;;;;;;;17.10;99.90;;;16.77;100.00;100754.09;5074844;28;19925;-64
2021/06/11 00:30:26;;;;;;;;;;;;;;;16.76;100.00;100747.03;5074081;28;19931;-64
2021/06/11 00:32:53;;;;;;;;;;;17.00;99.90;;;16.76;100.00;100747.03;5074213;28;19993;-63
2021/06/11 00:35:22;;;;;;;;;;;17.00;99.90;;;16.75;100.00;100740.75;5074150;28;19931;-63
2021/06/11 00:37:49;;;;;;;;;;;17.00;99.90;;;16.78;100.00;100750.22;5074701;28;20289;-64
2021/06/11 00:40:17;;;;;;;;;;;17.10;99.90;;;16.79;100.00;100741.72;5074210;28;19924;-64
2021/06/11 00:42:45;;;;;;;;;;;17.10;99.90;;;16.82;100.00;100749.22;5074133;28;20274;-64
2021/06/11 00:45:13;;;;;;;;;;;17.10;99.90;;;16.82;100.00;100748.44;5074066;28;19925;-64
2021/06/11 00:47:40;;;;;;;;;;;17.10;99.90;;;16.76;100.00;100745.09;5074452;28;19936;-63
2021/06/11 00:50:08;;;;;;;;;;;17.10;99.90;;;16.74;100.00;100746.56;5073962;28;20124;-65
2021/06/11 00:52:38;;;;;;;;;;;17.00;99.90;;;16.70;100.00;100737.44;5074108;28;19931;-65
2021/06/11 00:55:06;;;;;;;;;;;17.00;99.90;;;16.71;100.00;100758.97;5073927;28;19925;-63
2021/06/11 00:57:34;;;;;;;;;;;17.00;99.90;;;16.73;100.00;100747.69;5074309;28;19931;-64
2021/06/11 01:00:01;;;;;;;;;;;17.00;99.90;;;16.73;100.00;100747.69;5073607;28;19924;-64
2021/06/11 01:02:28;;;;;;;;;;;17.00;99.90;;;16.73;100.00;100740.31;5073881;28;19947;-64
2021/06/11 01:04:55;;;;;;;;;;;17.00;99.90;;;16.76;100.00;100738.84;5072897;28;19924;-63
2021/06/11 01:07:24;;;;;;;;;;;17.00;99.90;;;16.75;100.00;100732.56;5074150;28;19928;-64
2021/06/11 01:09:53;;;;;;;;;;;17.00;99.90;;;16.73;100.00;100734.84;5073512;28;20394;-63
2021/06/11 01:12:21;;;;;;;;;;;17.00;99.90;;;16.74;100.00;100732.91;5073594;28;20385;-64
2021/06/11 01:14:48;;;;;;;;;;;17.00;99.90;;;16.73;100.00;100728.56;5073471;28;19924;-63
2021/06/11 01:17:15;;;;;;;;;;;17.00;99.90;;;16.73;100.00;100729.38;5073935;28;19924;-63
2021/06/11 01:19:44;;;;;;;;;;;17.00;99.90;;;16.74;100.00;100730.19;5073234;28;19974;-63
2021/06/11 01:22:17;;;;;;;;;;;17.00;99.90;;;16.71;100.00;100714.47;5073669;28;19928;-63
2021/06/11 01:24:57;;;;;;;;;;;17.00;99.90;;;16.70;100.00;100724.59;5073336;28;20018;-63
2021/06/11 01:27:27;;;;;;;;;;;17.00;99.90;;;16.71;100.00;100720.75;5073691;28;19928;-63
2021/06/11 01:30:03;;;;;;;;;;;17.00;99.90;;;16.73;100.00;100728.56;5073185;28;19929;-65
2021/06/11 01:32:31;;;;;;;;;;;17.00;99.90;;;16.71;100.00;100723.47;5073389;28;19947;-63
2021/06/11 01:34:59;;;;;;;;;;;17.00;99.90;;;16.70;100.00;100729.25;5073044;28;19986;-64
2021/06/11 01:37:32;;;;;;;;;;;17.00;99.90;;;16.69;100.00;100720.25;5073370;28;20389;-64
2021/06/11 01:40:04;;;;;;;;;;;17.00;99.90;;;16.69;100.00;100717.53;5073052;28;20022;-63
2021/06/11 01:42:35;;;;;;;;;;;17.00;99.90;;;16.66;100.00;100714.66;5073205;28;20014;-64
2021/06/11 01:45:06;;;;;;;;;;;16.90;99.90;;;16.64;100.00;100722.38;5072880;28;19964;-64
2021/06/11 01:47:35;;;;;;;;;;;16.90;99.90;;;16.65;100.00;100722.06;5073234;28;19932;-63
2021/06/11 01:50:02;;;;;;;;;;;16.90;99.90;;;16.65;100.00;100716.59;5071238;28;19955;-63
2021/06/11 01:52:31;;;;;;;;;;;16.90;99.90;;;16.64;100.00;100714.19;5073046;28;19928;-63
2021/06/11 01:54:58;;;;;;;;;;;16.90;99.90;;;16.61;100.00;100712.94;5072662;28;19924;-65
2021/06/11 01:57:25;;;;;;;;;;;16.90;99.90;;;16.63;100.00;100709.84;5073067;28;19932;-64
2021/06/11 01:59:55;;;;;;;;;;;16.90;99.90;;;16.63;100.00;100715.31;5072608;28;20389;-63
2021/06/11 02:02:22;;;;;;;;;;;16.90;99.90;;;16.65;100.00;100716.59;5072589;28;19947;-63
2021/06/11 02:04:50;;;;;;;;;;;16.90;99.90;;;16.66;100.00;100703.72;5072741;28;19936;-64
2021/06/11 02:07:17;;;;;;;;;;;16.90;99.90;;;16.68;100.00;100704.22;5072892;28;20370;-63
2021/06/11 02:09:45;;;;;;;;;;;17.00;99.90;;;16.69;100.00;100703.06;5072516;28;19924;-63
2021/06/11 02:12:13;;;;;;;;;;;16.90;99.90;;;16.65;100.00;100697.50;5072532;28;19930;-63
2021/06/11 02:14:40;;;;;;;;;;;16.90;99.90;;;16.66;100.00;100703.72;5072349;28;19956;-64
2021/06/11 02:17:09;;;;;;;;;;;16.90;99.90;;;16.69;100.00;100701.13;5072540;28;19970;-64
2021/06/11 02:19:38;;;;;;;;;;;17.00;99.90;;;16.69;100.00;100700.34;5072419;28;19985;-65
2021/06/11 02:22:06;;;;;;;;;;;17.00;99.90;;;16.71;100.00;100700.81;5072418;28;19924;-63
2021/06/11 02:24:34;;;;;;;;;;;17.00;99.90;;;16.68;100.00;100688.63;5072381;28;20371;-65
2021/06/11 02:27:02;;;;;;;;;;;17.00;99.90;;;16.65;100.00;100683.84;5072813;28;19931;-64
2021/06/11 02:29:29;;;;;;;;;;;16.90;99.90;;;16.63;100.00;100677.91;5072369;28;19931;-63
2021/06/11 02:31:56;;;;;;;;;;;16.90;99.90;;;16.62;100.00;100684.50;5072197;28;20336;-63
2021/06/11 02:34:25;;;;;;;;;;;16.90;99.90;;;16.61;100.00;100676.63;5072359;28;19928;-63
2021/06/11 02:36:52;;;;;;;;;;;16.90;99.90;;;16.61;100.00;100671.97;5072332;28;20294;-63
2021/06/11 02:39:19;;;;;;;;;;;16.90;99.90;;;16.59;100.00;100673.44;5072318;28;19925;-63
2021/06/11 02:41:50;;;;;;;;;;;16.90;99.90;;;16.63;100.00;100674.38;5071872;28;20473;-65
2021/06/11 02:44:17;;;;;;;;;;;16.90;99.90;;;16.64;100.00;100659.59;5072508;28;19925;-63
2021/06/11 02:46:48;;;;;;;;;;;16.90;99.90;;;16.63;100.00;100660.72;5071926;28;19929;-64
2021/06/11 02:49:22;;;;;;;;;;;16.90;99.90;;;16.64;100.00;100668.59;5072246;28;19924;-63
2021/06/11 02:51:51;;;;;;;;;;;;;;;16.64;100.00;100660.41;5071878;28;20302;-63
2021/06/11 02:54:22;;;;;;;;;;;;;;;16.65;100.00;100662.00;5072471;28;19932;-64
2021/06/11 02:56:52;;;;;;;;;;;16.90;99.90;;;16.70;100.00;100659.06;5072013;28;19935;-63
2021/06/11 02:59:22;;;;;;;;;;;17.00;99.90;;;16.69;100.00;100662.09;5072180;28;19931;-63
2021/06/11 03:01:53;;;;;;;;;;;16.90;99.90;;;16.71;100.00;100654.41;5071703;28;19933;-63
2021/06/11 03:04:20;;;;;;;;;;;16.90;99.90;;;16.70;100.00;100653.59;5072343;28;19974;-64
2021/06/11 03:06:50;;;;;;;;;;;17.00;99.90;;;16.70;100.00;100650.06;5071825;28;19924;-64
2021/06/11 03:09:21;;;;;;;;;;;17.00;99.90;;;16.67;100.00;100642.53;5072185;28;19928;-64
2021/06/11 03:11:51;;;;;;;;;;;16.90;99.90;;;16.64;100.00;100641.28;5071569;28;19928;-65
2021/06/11 03:14:18;;;;;;;;;;;16.90;99.90;;;16.68;100.00;100639.50;5072431;28;19993;-64
2021/06/11 03:16:49;;;;;;;;;;;16.90;99.90;;;16.68;100.00;100644.16;5071736;28;19929;-63
2021/06/11 03:19:19;;;;;;;;;;;16.90;99.90;;;16.67;100.00;100639.81;5071791;28;19924;-66
2021/06/11 03:21:49;;;;;;;;;;;16.90;99.90;;;16.61;100.00;100639.22;5071399;28;19932;-64
2021/06/11 03:24:21;;;;;;;;;;;16.90;99.90;;;16.58;100.00;100634.44;5072089;28;19931;-64
2021/06/11 03:26:50;;;;;;;;;;;16.80;99.90;;;16.56;100.00;100633.97;5071768;28;19931;-64
2021/06/11 03:29:22;;;;;;;;;;;16.80;99.90;;;16.55;100.00;100635.09;5074793;28;19924;-65
2021/06/11 03:31:53;;;;;;;;;;;16.80;99.90;;;16.55;100.00;100645.22;5075192;28;19932;-65
2021/06/11 03:34:22;;;;;;;;;;;16.80;99.90;;;16.57;100.00;100637.47;5075955;28;20435;-64
2021/06/11 03:36:50;;;;;;;;;;;16.80;99.90;;;16.61;100.00;100641.16;5075531;28;19928;-65
2021/06/11 03:39:21;;;;;;;;;;;16.80;99.90;;;16.61;100.00;100636.50;5075692;28;19979;-65
2021/06/11 03:41:49;;;;;;;;;;;16.90;99.90;;;16.60;100.00;100632.16;5075163;28;19924;-65
2021/06/11 03:44:17;;;;;;;;;;;16.90;99.90;;;16.59;100.00;100632.50;5075766;28;20029;-65
2021/06/11 03:46:47;;;;;;;;;;;16.90;99.90;;;16.58;100.00;100633.63;5074959;28;19928;-65
2021/06/11 03:49:14;;;;;;;;;;;16.90;99.90;;;16.58;100.00;100628.16;5075290;28;19928;-65
2021/06/11 03:51:43;;;;;;;;;;;16.80;99.90;;;16.61;100.00;100636.50;5075188;28;19931;-65
2021/06/11 03:54:13;;;;;;;;;;;16.90;99.90;;;16.58;100.00;100628.16;5075317;28;19936;-65
2021/06/11 03:56:43;;;;;;;;;;;16.90;99.90;;;16.60;100.00;100625.88;5074963;28;19925;-64
2021/06/11 03:59:10;;;;;;;;;;;16.90;99.90;;;16.61;100.00;100630.22;5075123;28;19928;-65
2021/06/11 04:01:42;;;;;;;;;;;16.90;99.90;;;16.66;100.00;100622.63;5074997;28;19925;-65
2021/06/11 04:04:09;;;;;;;;;;;16.90;99.90;;;16.67;100.00;100631.63;5075204;28;20297;-66
2021/06/11 04:06:37;;;;;;;;;;;16.90;99.90;;;16.65;100.00;100617.53;5074747;28;19924;-66
2021/06/11 04:09:09;;;;;;;;;;;16.90;99.90;;;16.62;100.00;100619.00;5075026;28;19924;-66
2021/06/11 04:11:38;;;;;;;;;;;16.90;99.90;;;16.63;100.00;100620.56;5074581;28;19931;-65
2021/06/11 04:14:08;;;;;;;;;;;16.90;99.90;;;16.64;100.00;100621.38;5074876;28;19932;-65
2021/06/11 04:16:39;;;;;;;;;;;16.90;99.90;;;16.70;100.00;100628.22;5074516;28;19925;-65
2021/06/11 04:19:11;;;;;;;;;;;16.90;99.90;;;16.72;100.00;100623.22;5074745;28;19932;-64
2021/06/11 04:21:38;;;;;;;;;;;17.00;99.90;;;16.71;100.00;100616.19;5074401;28;19925;-65
2021/06/11 04:24:09;;;;;;;;;;;17.00;99.90;;;16.64;100.00;100613.19;5074598;28;20408;-65
2021/06/11 04:26:40;;;;;;;;;;;16.90;99.90;;;16.66;100.00;100611.72;5074517;28;20465;-65
2021/06/11 04:29:11;;;;;;;;;;;16.90;99.90;;;16.66;100.00;100619.91;5074687;28;20391;-65
2021/06/11 04:31:38;;;;;;;;;;;16.90;99.90;;;16.61;100.00;100611.13;5074353;28;19932;-65
2021/06/11 04:34:06;;;;;;;;;;;16.90;99.90;;;16.65;100.00;100610.13;5074516;28;19932;-65
2021/06/11 04:36:35;;;;;;;;;;;16.90;99.90;;;16.71;100.00;100600.59;5074107;28;19924;-65
2021/06/11 04:39:04;;;;;;;;;;;17.00;99.90;;;16.73;100.00;100611.16;5074059;28;20275;-65
2021/06/11 04:41:32;;;;;;;;;;;17.00;99.90;;;16.71;100.00;100608.78;5073535;28;20453;-64
2021/06/11 04:44:00;;;;;;;;;;;17.00;99.90;;;16.65;100.00;100612.88;5074532;28;19931;-65
2021/06/11 04:46:29;;;;;;;;;;;17.00;99.90;;;16.63;100.00;100614.31;5074053;28;20294;-64
2021/06/11 04:48:56;;;;;;;;;;;16.90;99.90;;;16.63;100.00;100608.84;5074248;28;20362;-63
2021/06/11 04:51:24;;;;;;;;;;;16.90;99.90;;;16.63;100.00;100614.31;5074014;28;19928;-64
2021/06/11 04:53:51;;;;;;;;;;;16.90;99.90;;;16.59;100.00;100608.75;5074141;28;19925;-66
2021/06/11 04:56:19;;;;;;;;;;;16.90;99.90;;;16.56;100.00;100614.06;5073773;28;20193;-64
2021/06/11 04:58:47;;;;;;;;;;;16.80;99.90;;;16.55;100.00;100612.47;5074125;28;19924;-64
2021/06/11 05:01:15;;;;;;;;;;;16.80;99.90;;;16.56;100.00;100612.13;5073865;28;19967;-63
2021/06/11 05:03:44;;;;;;;;;;;16.90;99.90;;;16.58;100.00;100607.13;5073858;28;19924;-63
2021/06/11 05:06:11;;;;;;;;;;;16.90;99.90;;;16.55;100.00;100605.06;5073454;28;19924;-63
2021/06/11 05:08:40;;;;;;;;;;;16.90;99.90;;;16.60;100.00;100609.50;5073943;28;19950;-63
2021/06/11 05:11:07;;;;;;;;;;;16.90;99.90;;;16.59;100.00;100613.41;5073618;28;20297;-64
2021/06/11 05:13:35;;;;;;;;;;;16.90;99.90;;;16.58;100.00;100619.97;5073695;28;19945;-64
2021/06/11 05:16:02;;;;;;;;;;;16.90;99.90;;;16.58;100.00;100617.25;5073389;28;19924;-63
2021/06/11 05:18:30;;;;;;;;;;;16.80;99.90;;;16.56;100.00;100616.78;5073512;28;19931;-64
2021/06/11 05:20:59;;;;;;;;;;;16.80;99.90;;;16.57;100.00;100626.56;5073335;28;19924;-63
2021/06/11 05:23:27;;;;;;;;;;;16.80;99.90;;;16.59;100.00;100619.66;5073421;28;19928;-64
2021/06/11 05:25:55;;;;;;;;;;;16.90;99.90;;;16.61;100.00;100625.56;5073352;28;19932;-65
2021/06/11 05:28:22;;;;;;;;;;;16.90;99.90;;;16.63;100.00;100636.16;5073699;28;19925;-64
2021/06/11 05:30:49;;;;;;;;;;;16.90;99.90;;;16.61;100.00;100627.50;5073247;28;19933;-63
2021/06/11 05:33:17;;;;;;;;;;;16.90;99.90;;;16.61;100.00;100627.50;5073433;28;19943;-63
2021/06/11 05:35:44;;;;;;;;;;;16.90;99.90;;;16.57;100.00;100624.63;5072947;28;19932;-63
2021/06/11 05:38:14;;;;;;;;;;;16.90;99.90;;;16.57;100.00;100626.56;5073389;28;20360;-64
2021/06/11 05:40:41;;;;;;;;;;;16.90;99.90;;;16.57;100.00;100627.38;5073024;28;19928;-63
2021/06/11 05:43:08;;;;;;;;;;;16.90;99.90;;;16.59;100.00;100625.13;5072949;28;20447;-63
2021/06/11 05:45:36;;;;;;;;;;;16.90;99.90;;;16.61;100.00;100632.97;5072832;28;19970;-63
2021/06/11 05:48:04;;;;;;;;;;;16.90;99.90;;;16.58;100.00;100630.91;5073291;28;19936;-63
2021/06/11 05:50:31;;;;;;;;;;;16.90;99.90;;;16.58;100.00;100628.97;5072670;28;20388;-64
2021/06/11 05:52:59;;;;;;;;;;;16.90;99.90;;;16.58;100.00;100628.16;5072862;28;19924;-63
2021/06/11 05:55:27;;;;;;;;;;;16.90;99.90;;;16.57;100.00;100626.56;5072540;28;20373;-64
2021/06/11 05:57:55;;;;;;;;;;;16.90;99.90;;;16.56;100.00;100623.06;5073125;28;19948;-64
2021/06/11 06:00:23;;;;;;;;;;;16.90;99.90;;;16.56;100.00;100622.25;5072835;28;20037;-64
2021/06/11 06:02:50;;;;;;;;;;;16.90;99.90;;;16.56;100.00;100614.06;5072617;28;20388;-64
2021/06/11 06:05:17;;;;;;;;;;;16.90;99.90;;;16.55;100.00;100613.25;5072520;28;19954;-64
2021/06/11 06:07:45;;;;;;;;;;;16.90;99.90;;;16.56;100.00;100614.06;5072969;28;19984;-65
2021/06/11 06:10:13;;;;;;;;;;;16.90;99.90;;;16.56;100.00;100606.69;5072356;28;19956;-63
2021/06/11 06:12:41;;;;;;;;;;;16.90;99.90;;;16.57;100.00;100613.72;5072354;28;19981;-64
2021/06/11 06:15:09;;;;;;;;;;;16.90;99.90;;;16.56;100.00;100608.59;5072248;28;19924;-64
2021/06/11 06:17:38;;;;;;;;;;;16.90;99.90;;;16.61;100.00;100611.13;5072988;28;20023;-64
2021/06/11 06:20:08;;;;;;;;;;;16.90;99.90;;;16.60;100.00;100620.44;5072366;28;19925;-64
2021/06/11 06:22:35;;;;;;;;;;;16.90;99.90;;;16.63;100.00;100620.56;5072081;28;19924;-64
2021/06/11 06:25:03;;;;;;;;;;;16.90;99.90;;;16.66;100.00;100630.00;5072057;28;19925;-64
2021/06/11 06:27:31;;;;;;;;;;;17.00;99.90;;;16.70;100.00;100622.75;5072547;28;19925;-64
2021/06/11 06:29:59;;;;;;;;;;;17.00;99.90;;;16.71;100.00;100621.63;5072191;28;19924;-64
2021/06/11 06:32:29;;;;;;;;;;;17.00;99.90;;;16.73;100.00;100622.09;5072199;28;19936;-63
2021/06/11 06:34:57;;;;;;;;;;;17.00;99.90;;;16.72;100.00;100621.28;5072061;28;20372;-64
2021/06/11 06:37:25;;;;;;;;;;;17.00;99.90;;;16.68;100.00;100622.31;5072399;28;19928;-64
2021/06/11 06:39:52;;;;;;;;;;;17.00;99.90;;;16.70;100.00;100620.03;5071949;28;20369;-64
2021/06/11 06:42:20;;;;;;;;;;;17.00;99.90;;;16.72;100.00;100626.75;5072136;28;19928;-64
2021/06/11 06:44:47;;;;;;;;;;;17.00;99.90;;;16.74;100.00;100623.69;5072096;28;19936;-64
2021/06/11 06:47:15;;;;;;;;;;;17.00;99.90;;;16.73;100.00;100627.56;5072452;28;19924;-64
2021/06/11 06:49:43;;;;;;;;;;;17.00;99.90;;;16.75;100.00;100622.53;5072026;28;20419;-63
2021/06/11 06:52:10;;;;;;;;;;;17.00;99.90;;;16.75;100.00;100628.81;5071843;28;19986;-65
2021/06/11 06:54:37;;;;;;;;;;;17.00;99.90;;;16.76;100.00;100624.16;5071985;28;19931;-63
2021/06/11 06:57:05;;;;;;;;;;;17.00;99.90;;;16.77;100.00;100612.91;5072182;28;20026;-64
2021/06/11 06:59:33;;;;;;;;;;;17.10;99.90;;;16.80;100.00;100616.91;5072169;28;19928;-64
2021/06/11 07:02:00;;;;;;;;;;;17.10;99.90;;;16.79;100.00;100624.28;5071848;28;20259;-64
2021/06/11 07:04:29;;;;;;;;;;;17.10;99.90;;;16.85;100.00;100622.94;5075394;28;19924;-64
2021/06/11 07:06:57;;;;;;;;;;;17.10;99.90;;;16.90;100.00;100616.47;5076209;28;20294;-64
2021/06/11 07:09:24;;;;;;;;;;;17.20;99.90;;;16.87;100.00;100620.66;5076405;28;20401;-64
2021/06/11 07:11:52;;;;;;;;;;;17.20;99.90;;;16.90;100.00;100617.25;5075478;28;20293;-65
2021/06/11 07:14:19;;;;;;;;;;;17.20;99.90;;;16.99;100.00;100619.94;5076460;28;19972;-64
2021/06/11 07:16:48;;;;;;;;;;;17.30;99.90;;;17.09;100.00;100629.59;5075747;28;19924;-63
2021/06/11 07:19:16;;;;;;;;;;;17.40;99.90;;;17.14;100.00;100622.00;5075756;28;19924;-64
2021/06/11 07:21:45;;;;;;;;;;;17.40;99.90;;;17.10;98.35;100623.81;5075360;28;19932;-64
2021/06/11 07:24:12;;;;;;;;;;;17.40;99.90;;;17.14;98.97;100630.22;5076070;28;19925;-63
2021/06/11 07:26:39;;;;;;;;;;;17.40;99.90;;;17.21;99.44;100633.16;5075599;28;20007;-64
2021/06/11 07:29:06;;;;;;;;;;;17.50;99.90;;;17.29;98.94;100634.22;5075990;28;19932;-65
2021/06/11 07:31:34;;;;;;;;;;;17.60;99.90;;;17.30;98.00;100633.06;5075246;28;19924;-63
2021/06/11 07:34:01;;;;;;;;;;;17.60;99.90;;;17.33;97.71;100643.31;5076354;28;19951;-65
2021/06/11 07:36:29;;;;;;;;;;;17.60;99.90;;;17.36;97.50;100646.19;5075386;28;19924;-67
2021/06/11 07:38:58;;;;;;;;;;;17.70;99.90;;;17.40;97.33;100649.03;5075665;28;19931;-66
2021/06/11 07:41:25;;;;;;;;;;;17.70;99.90;;;17.44;97.45;100648.03;5075142;28;19932;-66
2021/06/11 07:43:53;;;;;;;;;;;17.80;99.90;;;17.46;96.57;100650.41;5075669;28;19932;-63
2021/06/11 07:46:21;;;;;;;;;;;17.80;99.90;;;17.48;96.48;100650.84;5075000;28;20289;-63
2021/06/11 07:48:49;;;;;;;;;;;17.80;99.90;;;17.48;96.58;100656.31;5075550;28;19932;-65
2021/06/11 07:51:16;;;;;;;;;;;17.80;99.90;;;17.49;96.28;100656.00;5075095;28;19932;-65
2021/06/11 07:53:43;;;;;;;;;;;17.80;99.90;;;17.54;96.18;100654.19;5075460;28;19932;-63
2021/06/11 07:56:12;;;;;;;;;;;17.90;99.90;;;17.64;96.23;100651.03;5074798;28;19931;-64
2021/06/11 07:58:40;;;;;;;;;;;18.00;99.90;;;17.75;94.86;100649.47;5075337;28;19932;-64
2021/06/11 08:01:07;;;;;;;;;;;18.10;99.90;;;17.76;94.39;100645.56;5074868;28;19929;-64
2021/06/11 08:03:34;;;;;;;;;;;18.10;99.90;;;17.75;93.87;100646.72;5075215;28;20401;-64
2021/06/11 08:06:01;;;;;;;;;;;18.10;99.90;;;17.73;94.33;100648.97;5074836;28;19925;-63
2021/06/11 08:08:29;;;;;;;;;;;18.00;99.90;;;17.82;94.62;100644.19;5074826;28;20448;-65
2021/06/11 08:10:56;;;;;;;;;;;18.10;99.90;;;17.95;93.24;100643.06;5074796;28;19929;-64
2021/06/11 08:13:25;;;;;;;;;;;18.30;99.90;;;18.06;92.41;100644.19;5074746;28;19925;-63
2021/06/11 08:15:52;;;;;;;;;;;18.40;99.90;;;18.15;90.91;100647.59;5074456;28;19924;-66
2021/06/11 08:18:19;;;;;;;;;;;18.50;99.90;;;18.28;90.39;100648.38;5074976;28;19924;-66
2021/06/11 08:20:46;;;;;;;;;;;18.60;99.90;;;18.31;89.42;100656.69;5074557;28;19924;-66
2021/06/11 08:23:13;;;;;;;;;;;18.70;99.90;;;18.31;89.60;100658.63;5074697;28;19928;-66
2021/06/11 08:25:41;;;;;;;;;;;18.60;99.90;;;18.26;89.84;100659.69;5074265;28;19929;-66
2021/06/11 08:28:08;;;;;;;;;;;18.70;99.90;;;18.34;90.45;100658.75;5074638;28;19924;-66
2021/06/11 08:30:37;;;;;;;;;;;18.70;99.90;;;18.46;90.13;100652.44;5074553;28;19932;-66
2021/06/11 08:33:06;;;;;;;;;;;18.80;99.90;;;18.54;89.13;100646.84;5074689;28;19932;-65
2021/06/11 08:35:33;;;;;;;;;;;18.90;99.90;;;18.50;88.33;100642.41;5074184;28;20023;-66
2021/06/11 08:38:01;;;;;;;;;;;18.90;99.90;;;18.52;88.00;100643.66;5074458;28;19929;-66
2021/06/11 08:40:29;;;;;;;;;;;18.90;99.90;;;18.67;87.98;100652.28;5074235;28;19930;-65
2021/06/11 08:42:57;;;;;;;;;;;19.00;99.90;;;18.76;87.82;100644.72;5074151;28;19924;-66
2021/06/11 08:45:24;;;;;;;;;;;19.10;99.90;;;18.86;85.44;100653.25;5074175;28;19932;-66
2021/06/11 08:47:54;;;;;;;;;;;19.20;99.90;;;18.99;85.87;100651.25;5074515;28;19924;-66
2021/06/11 08:50:23;;;;;;;;;;;19.30;99.90;;;19.08;84.63;100646.41;5074278;28;19928;-65
2021/06/11 08:52:51;;;;;;;;;;;19.50;99.90;;;19.19;82.60;100652.97;5074437;28;20463;-65
2021/06/11 08:55:18;;;;;;;;;;;19.60;99.90;;;19.32;82.38;100650.94;5074063;28;20427;-65
2021/06/11 08:57:45;;;;;;;;;;;19.70;99.90;;;19.18;83.33;100654.09;5074170;28;19924;-65
2021/06/11 09:00:13;;;;;;;;;;;19.60;99.90;;;19.24;84.45;100652.69;5073820;28;20290;-66
2021/06/11 09:03:10;;;;;;;;;;;19.70;99.90;;;19.45;82.64;100644.28;5073897;28;19924;-66
2021/06/11 09:05:37;;;;;;;;;;;19.80;99.90;;;19.42;81.30;100651.28;5073852;28;19931;-65
2021/06/11 09:08:17;;;;;;;;;;;19.90;99.90;;;19.49;80.94;100647.88;5074069;28;19928;-66
2021/06/11 09:10:45;;;;;;;;;;;20.00;99.90;;;19.52;81.33;100652.66;5073764;28;19932;-66
2021/06/11 09:13:22;;;;;;;;;;;20.00;99.90;;;19.51;81.00;100660.13;5073691;28;20367;-65
2021/06/11 09:15:49;;;;;;;;;;;20.00;99.90;;;19.53;79.58;100652.31;5073458;28;19940;-65
2021/06/11 09:18:22;;;;;;;;;;;20.00;99.90;;;19.56;79.61;100651.63;5073740;28;19924;-66
2021/06/11 09:20:50;;;;;;;;;;;20.10;99.90;;;19.51;80.16;100657.38;5073473;28;19931;-66
2021/06/11 09:23:18;;;;;;;;;;;20.00;99.90;;;19.45;80.86;100656.06;5073561;28;19956;-65
2021/06/11 09:25:49;;;;;;;;;;;20.00;99.90;;;19.53;81.27;100659.75;5072624;28;20405;-65
2021/06/11 09:28:18;;;;;;;;;;;20.00;99.90;;;19.60;79.93;100657.19;5073396;28;19962;-66
2021/06/11 09:30:50;;;;;;;;;;;20.10;99.90;;;19.43;79.14;100665.75;5073521;28;19925;-65
2021/06/11 09:33:19;;;;;;;;;;;20.00;99.90;;;19.27;80.66;100664.94;5073499;28;19924;-66
2021/06/11 09:35:49;;;;;;;;;;;19.80;99.90;;;19.30;81.18;100664.22;5073146;28;19924;-65
2021/06/11 09:38:19;;;;;;;;;;;19.80;99.90;;;19.27;80.30;100665.69;5073037;28;20023;-65
2021/06/11 09:40:49;;;;;;;;;;;19.80;99.90;;;19.34;79.95;100665.91;5073117;28;19981;-66
2021/06/11 09:43:16;;;;;;;;;;;19.80;99.90;;;19.27;80.18;100668.44;5073319;28;19924;-66
2021/06/11 09:45:44;;;;;;;;;;;19.70;99.90;;;19.24;81.04;100663.66;5072901;28;20124;-66
2021/06/11 09:48:19;;;;;;;;;;;19.70;99.90;;;19.31;80.81;100663.06;5073093;28;20396;-66
2021/06/11 09:50:52;;;;;;;;;;;19.80;99.90;;;19.36;80.21;100665.56;5072938;28;19925;-65
2021/06/11 09:53:22;;;;;;;;;;;19.80;99.90;;;19.46;80.28;100668.59;5073090;28;19925;-66
2021/06/11 09:55:53;;;;;;;;;;;19.90;99.90;;;19.48;79.36;100673.75;5072773;28;19931;-66
2021/06/11 09:58:22;;;;;;;;;;;19.90;99.90;;;19.51;80.19;100671.09;5072803;28;19936;-66
2021/06/11 10:00:52;;;;;;;;;;;20.00;99.90;;;19.59;79.37;100672.06;5072748;28;19993;-66
2021/06/11 10:03:25;;;;;;;;;;;20.00;99.90;;;19.63;78.83;100673.75;5072925;28;20381;-65
2021/06/11 10:05:55;;;;;;;;;;;20.00;99.90;;;19.64;78.81;100678.06;5072564;28;19978;-66
2021/06/11 10:08:23;;;;;;;;;;;20.00;99.90;;;19.81;77.19;100674.19;5072697;28;19924;-65
2021/06/11 10:10:52;;;;;;;;;;;20.30;99.90;;;19.96;76.57;100681.59;5072596;28;19931;-65
2021/06/11 10:13:20;;;;;;;;;;;20.40;99.90;;;19.99;76.75;100683.63;5072661;28;19978;-65
2021/06/11 10:15:49;;;;;;;;;;;20.50;99.90;;;20.07;75.70;100688.13;5072408;28;19924;-65
2021/06/11 10:18:16;;;;;;;;;;;20.60;99.90;;;20.10;75.37;100678.38;5072607;28;19928;-66
2021/06/11 10:20:44;;;;;;;;;;;20.60;99.90;;;20.14;75.77;100682.03;5072500;28;19929;-65
2021/06/11 10:23:15;;;;;;;;;;;20.60;99.90;;;20.10;75.93;100686.63;5072813;28;19932;-66
2021/06/11 10:25:44;;;;;;;;;;;20.60;99.90;;;20.21;75.29;100684.94;5072400;28;19932;-66
2021/06/11 10:28:13;;;;;;;;;;;20.70;99.90;;;20.21;74.77;100676.69;5072808;28;19931;-65
2021/06/11 10:30:41;;;;;;;;;;;20.70;99.90;;;20.31;74.13;100686.34;5072075;28;19925;-64
2021/06/11 10:33:09;;;;;;;;;;;20.80;99.90;;;20.50;73.13;100678.94;5072442;28;19925;-64
2021/06/11 10:35:46;;;;;;;;;;;21.00;99.90;;;20.73;72.57;100674.31;5072159;28;19928;-64
2021/06/11 10:38:32;;;;;;;;;;;21.20;99.90;;;20.80;70.64;100668.19;5072554;28;19924;-64
2021/06/11 10:41:00;;;;;;;;;;;21.30;99.90;;;20.85;71.62;100676.16;5071933;28;19935;-66
2021/06/11 10:43:35;;;;;;;;;;;21.40;99.90;;;20.81;70.72;100668.97;5072175;28;19932;-65
2021/06/11 10:46:03;;;;;;;;;;;21.40;99.90;;;20.78;71.25;100675.19;5072100;28;19925;-65
2021/06/11 10:49:01;;;;;;;;;;;21.40;99.90;;;20.73;72.17;100668.06;5072405;28;19928;-64
2021/06/11 10:51:36;;;;;;;;;;;21.20;99.90;;;20.79;71.18;100680.34;5071937;28;20282;-65
2021/06/11 10:54:29;;;;;;;;;;;21.30;99.90;;;21.00;70.17;100668.97;5072697;28;20279;-65
2021/06/11 10:57:17;;;;;;;;;;;21.50;99.90;;;21.27;69.52;100667.16;5072118;28;19936;-66
2021/06/11 10:59:46;;;;;;;;;;;21.70;99.90;;;21.49;68.94;100669.13;5072142;28;19932;-65
2021/06/11 11:02:15;;;;;;;;;;;22.00;99.90;;;21.64;68.57;100670.97;5071936;28;19928;-65
2021/06/11 11:04:44;;;;;;;;;;;22.20;99.90;;;21.68;66.70;100664.34;5071845;28;19950;-66
2021/06/11 11:07:31;;;;;;;;;;;22.30;99.90;;;21.46;67.74;100673.38;5072432;28;19932;-63
2021/06/11 11:10:01;;;;;;;;;;;22.20;99.90;;;21.44;67.41;100661.16;5071689;28;19986;-63
2021/06/11 11:12:30;;;;;;;;;;;22.10;99.90;;;21.35;68.60;100666.13;5071873;28;19932;-64